This is the latest recevied weather packets stored in our database for station/object EB1GOD-1. If no packets are shown the sender has not sent any weather packets the latest 10 day(s).
| Time | Temp. | Humidity | Pressure | Rain* | Wind** | Luminosity | Snow |
|---|---|---|---|---|---|---|---|
| 1788140353 | 63° F | 74% | 869.9 mmHg | - | - | - | - |
| 1788139452 | 66° F | 71% | 869.8 mmHg | - | - | - | - |
| 1788138552 | 65° F | 71% | 870 mmHg | - | - | - | - |
| 1788137652 | 63° F | 74% | 870.1 mmHg | - | - | - | - |
| 1788136753 | 66° F | 71% | 870.1 mmHg | - | - | - | - |
| 1788135852 | 65° F | 70% | 870 mmHg | - | - | - | - |
| 1788134952 | 67° F | 71% | 869.9 mmHg | - | - | - | - |
| 1788134052 | 66° F | 72% | 869.9 mmHg | - | - | - | - |
| 1788133152 | 66° F | 73% | 870 mmHg | - | - | - | - |
| 1788132252 | 68° F | 70% | 870 mmHg | - | - | - | - |
| 1788131352 | 68° F | 70% | 870 mmHg | - | - | - | - |
| 1788130452 | 67° F | 74% | 870 mmHg | - | - | - | - |
| 1788129552 | 68° F | 72% | 870 mmHg | - | - | - | - |
| 1788128652 | 69° F | 68% | 869.9 mmHg | - | - | - | - |
| 1788127751 | 69° F | 70% | 869.8 mmHg | - | - | - | - |
| 1788126838 | 71° F | 66% | 869.8 mmHg | - | - | - | - |
| 1788125938 | 72° F | 65% | 869.7 mmHg | - | - | - | - |
| 1788125038 | 73° F | 62% | 869.5 mmHg | - | - | - | - |
| 1788124138 | 75° F | 59% | 869.5 mmHg | - | - | - | - |
| 1788123238 | 75° F | 59% | 869.3 mmHg | - | - | - | - |
| 1788122338 | 74° F | 58% | 869.2 mmHg | - | - | - | - |
| 1788121437 | 75° F | 59% | 869.1 mmHg | - | - | - | - |
| 1788120537 | 76° F | 57% | 868.9 mmHg | - | - | - | - |
| 1788119637 | 77° F | 56% | 868.6 mmHg | - | - | - | - |
| 1788118738 | 76° F | 58% | 868.3 mmHg | - | - | - | - |
* Rain since midnight (hover to see other rain measurements)
** Current wind speed in m/s (hover to see current wind gust speed)